sensor_id;sensor_type;location;lat;lon;timestamp;P1;durP1;ratioP1;P2;durP2;ratioP2
76863;SDS011;65834;52.364;9.754;2023-06-19T00:00:37;10.52;;;5.07;;
76863;SDS011;65834;52.364;9.754;2023-06-19T00:03:07;11.38;;;5.32;;
76863;SDS011;65834;52.364;9.754;2023-06-19T00:05:39;10.00;;;4.90;;
76863;SDS011;65834;52.364;9.754;2023-06-19T00:08:09;11.77;;;5.55;;
76863;SDS011;65834;52.364;9.754;2023-06-19T00:10:38;10.45;;;4.82;;
76863;SDS011;65834;52.364;9.754;2023-06-19T00:13:08;11.43;;;4.82;;
76863;SDS011;65834;52.364;9.754;2023-06-19T00:15:37;10.32;;;5.05;;
76863;SDS011;65834;52.364;9.754;2023-06-19T00:18:07;10.23;;;5.03;;
76863;SDS011;65834;52.364;9.754;2023-06-19T00:20:39;11.10;;;5.28;;
76863;SDS011;65834;52.364;9.754;2023-06-19T00:23:12;11.98;;;5.30;;
76863;SDS011;65834;52.364;9.754;2023-06-19T00:25:43;10.95;;;5.40;;
76863;SDS011;65834;52.364;9.754;2023-06-19T00:28:13;10.15;;;5.18;;
76863;SDS011;65834;52.364;9.754;2023-06-19T00:30:46;11.25;;;5.45;;
76863;SDS011;65834;52.364;9.754;2023-06-19T00:33:15;10.43;;;5.43;;
76863;SDS011;65834;52.364;9.754;2023-06-19T00:35:49;12.18;;;5.30;;
76863;SDS011;65834;52.364;9.754;2023-06-19T00:38:20;10.82;;;5.45;;
76863;SDS011;65834;52.364;9.754;2023-06-19T00:40:50;11.05;;;4.93;;
76863;SDS011;65834;52.364;9.754;2023-06-19T00:43:19;11.45;;;5.57;;
76863;SDS011;65834;52.364;9.754;2023-06-19T00:45:49;11.43;;;5.70;;
76863;SDS011;65834;52.364;9.754;2023-06-19T00:48:19;12.98;;;5.35;;
76863;SDS011;65834;52.364;9.754;2023-06-19T00:50:52;11.70;;;5.68;;
76863;SDS011;65834;52.364;9.754;2023-06-19T00:53:22;10.75;;;5.13;;
76863;SDS011;65834;52.364;9.754;2023-06-19T00:55:53;12.30;;;5.97;;
76863;SDS011;65834;52.364;9.754;2023-06-19T00:58:24;10.13;;;4.82;;
76863;SDS011;65834;52.364;9.754;2023-06-19T01:00:53;11.05;;;5.55;;
76863;SDS011;65834;52.364;9.754;2023-06-19T01:03:35;10.63;;;5.13;;
76863;SDS011;65834;52.364;9.754;2023-06-19T01:06:09;12.48;;;5.47;;
76863;SDS011;65834;52.364;9.754;2023-06-19T01:08:43;11.75;;;5.70;;
76863;SDS011;65834;52.364;9.754;2023-06-19T01:11:19;10.90;;;5.38;;
76863;SDS011;65834;52.364;9.754;2023-06-19T01:13:53;12.43;;;5.70;;
76863;SDS011;65834;52.364;9.754;2023-06-19T01:16:26;12.43;;;5.63;;
76863;SDS011;65834;52.364;9.754;2023-06-19T01:18:57;13.00;;;5.75;;
76863;SDS011;65834;52.364;9.754;2023-06-19T01:21:31;12.73;;;6.03;;
76863;SDS011;65834;52.364;9.754;2023-06-19T01:24:05;13.32;;;5.88;;
76863;SDS011;65834;52.364;9.754;2023-06-19T01:29:04;12.00;;;5.45;;
76863;SDS011;65834;52.364;9.754;2023-06-19T01:31:35;11.48;;;5.45;;
76863;SDS011;65834;52.364;9.754;2023-06-19T01:34:10;11.13;;;5.75;;
76863;SDS011;65834;52.364;9.754;2023-06-19T01:36:41;10.88;;;5.00;;
76863;SDS011;65834;52.364;9.754;2023-06-19T01:39:15;13.25;;;5.88;;
76863;SDS011;65834;52.364;9.754;2023-06-19T01:41:46;11.63;;;5.70;;
76863;SDS011;65834;52.364;9.754;2023-06-19T01:44:17;11.18;;;5.28;;
76863;SDS011;65834;52.364;9.754;2023-06-19T01:46:47;11.20;;;5.47;;
76863;SDS011;65834;52.364;9.754;2023-06-19T01:49:17;12.82;;;5.80;;
76863;SDS011;65834;52.364;9.754;2023-06-19T01:51:47;10.68;;;5.32;;
76863;SDS011;65834;52.364;9.754;2023-06-19T01:54:19;11.70;;;6.00;;
76863;SDS011;65834;52.364;9.754;2023-06-19T01:56:49;9.85;;;5.30;;
76863;SDS011;65834;52.364;9.754;2023-06-19T01:59:18;11.65;;;5.68;;
76863;SDS011;65834;52.364;9.754;2023-06-19T02:01:48;11.55;;;5.60;;
76863;SDS011;65834;52.364;9.754;2023-06-19T02:04:18;10.80;;;5.13;;
76863;SDS011;65834;52.364;9.754;2023-06-19T02:06:47;11.55;;;6.03;;
76863;SDS011;65834;52.364;9.754;2023-06-19T02:09:19;11.63;;;5.70;;
76863;SDS011;65834;52.364;9.754;2023-06-19T02:11:49;12.48;;;6.03;;
76863;SDS011;65834;52.364;9.754;2023-06-19T02:14:19;12.27;;;5.45;;
76863;SDS011;65834;52.364;9.754;2023-06-19T02:16:48;11.90;;;5.70;;
76863;SDS011;65834;52.364;9.754;2023-06-19T02:19:18;11.77;;;5.20;;
76863;SDS011;65834;52.364;9.754;2023-06-19T02:21:48;12.13;;;6.05;;
76863;SDS011;65834;52.364;9.754;2023-06-19T02:24:20;11.68;;;5.47;;
76863;SDS011;65834;52.364;9.754;2023-06-19T02:26:50;10.60;;;4.80;;
76863;SDS011;65834;52.364;9.754;2023-06-19T02:29:19;12.10;;;5.25;;
76863;SDS011;65834;52.364;9.754;2023-06-19T02:31:49;12.05;;;4.55;;
76863;SDS011;65834;52.364;9.754;2023-06-19T02:34:19;11.70;;;5.20;;
76863;SDS011;65834;52.364;9.754;2023-06-19T02:36:50;11.07;;;5.33;;
76863;SDS011;65834;52.364;9.754;2023-06-19T02:39:23;10.73;;;5.35;;
76863;SDS011;65834;52.364;9.754;2023-06-19T02:41:52;11.38;;;5.78;;
76863;SDS011;65834;52.364;9.754;2023-06-19T02:44:22;12.60;;;5.35;;
76863;SDS011;65834;52.364;9.754;2023-06-19T02:46:52;10.35;;;5.05;;
76863;SDS011;65834;52.364;9.754;2023-06-19T02:49:21;10.60;;;5.63;;
76863;SDS011;65834;52.364;9.754;2023-06-19T02:51:51;10.55;;;5.80;;
76863;SDS011;65834;52.364;9.754;2023-06-19T02:54:23;11.00;;;5.60;;
76863;SDS011;65834;52.364;9.754;2023-06-19T02:56:52;10.57;;;4.90;;
76863;SDS011;65834;52.364;9.754;2023-06-19T02:59:22;9.95;;;5.38;;
76863;SDS011;65834;52.364;9.754;2023-06-19T03:01:52;10.45;;;5.03;;
76863;SDS011;65834;52.364;9.754;2023-06-19T03:04:21;11.07;;;5.15;;
76863;SDS011;65834;52.364;9.754;2023-06-19T03:06:54;10.63;;;5.05;;
76863;SDS011;65834;52.364;9.754;2023-06-19T03:09:27;11.35;;;5.28;;
76863;SDS011;65834;52.364;9.754;2023-06-19T03:11:56;9.68;;;4.90;;
76863;SDS011;65834;52.364;9.754;2023-06-19T03:14:26;10.68;;;5.22;;
76863;SDS011;65834;52.364;9.754;2023-06-19T03:16:56;10.10;;;5.00;;
76863;SDS011;65834;52.364;9.754;2023-06-19T03:19:29;11.05;;;5.05;;
76863;SDS011;65834;52.364;9.754;2023-06-19T03:21:59;11.13;;;5.22;;
76863;SDS011;65834;52.364;9.754;2023-06-19T03:24:32;12.50;;;5.03;;
76863;SDS011;65834;52.364;9.754;2023-06-19T03:27:15;10.50;;;5.13;;
76863;SDS011;65834;52.364;9.754;2023-06-19T03:29:44;10.02;;;5.05;;
76863;SDS011;65834;52.364;9.754;2023-06-19T03:32:20;9.48;;;5.07;;
76863;SDS011;65834;52.364;9.754;2023-06-19T03:34:49;9.77;;;4.82;;
76863;SDS011;65834;52.364;9.754;2023-06-19T03:37:19;11.20;;;5.25;;
76863;SDS011;65834;52.364;9.754;2023-06-19T03:39:51;12.30;;;5.68;;
76863;SDS011;65834;52.364;9.754;2023-06-19T03:42:21;10.35;;;5.03;;
76863;SDS011;65834;52.364;9.754;2023-06-19T03:44:50;11.57;;;5.35;;
76863;SDS011;65834;52.364;9.754;2023-06-19T03:47:20;11.18;;;6.05;;
76863;SDS011;65834;52.364;9.754;2023-06-19T03:49:51;10.52;;;5.28;;
76863;SDS011;65834;52.364;9.754;2023-06-19T03:52:21;11.48;;;5.70;;
76863;SDS011;65834;52.364;9.754;2023-06-19T03:54:53;12.82;;;5.78;;
76863;SDS011;65834;52.364;9.754;2023-06-19T03:57:22;11.82;;;5.85;;
76863;SDS011;65834;52.364;9.754;2023-06-19T03:59:52;11.88;;;5.40;;
76863;SDS011;65834;52.364;9.754;2023-06-19T04:02:22;11.90;;;5.32;;
76863;SDS011;65834;52.364;9.754;2023-06-19T04:04:52;11.32;;;5.53;;
76863;SDS011;65834;52.364;9.754;2023-06-19T04:07:21;10.90;;;5.63;;
76863;SDS011;65834;52.364;9.754;2023-06-19T04:09:53;11.45;;;5.20;;
76863;SDS011;65834;52.364;9.754;2023-06-19T04:12:23;9.88;;;4.97;;
76863;SDS011;65834;52.364;9.754;2023-06-19T04:14:53;11.30;;;5.45;;
76863;SDS011;65834;52.364;9.754;2023-06-19T04:17:22;11.48;;;5.38;;
76863;SDS011;65834;52.364;9.754;2023-06-19T04:19:52;11.63;;;5.53;;
76863;SDS011;65834;52.364;9.754;2023-06-19T04:22:21;12.90;;;5.35;;
76863;SDS011;65834;52.364;9.754;2023-06-19T04:24:54;11.40;;;5.38;;
76863;SDS011;65834;52.364;9.754;2023-06-19T04:27:23;10.30;;;5.45;;
76863;SDS011;65834;52.364;9.754;2023-06-19T04:29:53;10.27;;;5.32;;
76863;SDS011;65834;52.364;9.754;2023-06-19T04:32:22;11.80;;;5.60;;
76863;SDS011;65834;52.364;9.754;2023-06-19T04:34:52;11.70;;;5.45;;
76863;SDS011;65834;52.364;9.754;2023-06-19T04:37:21;12.13;;;5.65;;
76863;SDS011;65834;52.364;9.754;2023-06-19T04:39:54;12.75;;;6.13;;
76863;SDS011;65834;52.364;9.754;2023-06-19T04:42:24;11.48;;;5.57;;
76863;SDS011;65834;52.364;9.754;2023-06-19T04:44:54;11.10;;;5.72;;
76863;SDS011;65834;52.364;9.754;2023-06-19T04:47:25;12.77;;;5.03;;
76863;SDS011;65834;52.364;9.754;2023-06-19T04:50:09;13.07;;;6.05;;
76863;SDS011;65834;52.364;9.754;2023-06-19T04:52:39;11.40;;;5.05;;
76863;SDS011;65834;52.364;9.754;2023-06-19T04:55:11;13.75;;;6.20;;
76863;SDS011;65834;52.364;9.754;2023-06-19T04:57:40;10.73;;;5.22;;
76863;SDS011;65834;52.364;9.754;2023-06-19T05:00:10;11.98;;;6.03;;
76863;SDS011;65834;52.364;9.754;2023-06-19T05:02:41;11.20;;;5.75;;
76863;SDS011;65834;52.364;9.754;2023-06-19T05:05:13;12.35;;;5.88;;
76863;SDS011;65834;52.364;9.754;2023-06-19T05:07:45;14.07;;;6.60;;
76863;SDS011;65834;52.364;9.754;2023-06-19T05:10:17;13.73;;;6.90;;
76863;SDS011;65834;52.364;9.754;2023-06-19T05:12:47;13.15;;;5.60;;
76863;SDS011;65834;52.364;9.754;2023-06-19T05:15:17;13.20;;;6.82;;
76863;SDS011;65834;52.364;9.754;2023-06-19T05:17:46;11.77;;;5.93;;
76863;SDS011;65834;52.364;9.754;2023-06-19T05:20:16;11.27;;;6.00;;
76863;SDS011;65834;52.364;9.754;2023-06-19T05:22:46;13.38;;;5.88;;
76863;SDS011;65834;52.364;9.754;2023-06-19T05:25:18;11.30;;;5.80;;
76863;SDS011;65834;52.364;9.754;2023-06-19T05:27:48;15.50;;;6.25;;
76863;SDS011;65834;52.364;9.754;2023-06-19T05:30:17;12.38;;;6.03;;
76863;SDS011;65834;52.364;9.754;2023-06-19T05:32:47;12.45;;;6.10;;
76863;SDS011;65834;52.364;9.754;2023-06-19T05:35:17;12.68;;;6.20;;
76863;SDS011;65834;52.364;9.754;2023-06-19T05:37:47;11.82;;;6.15;;
76863;SDS011;65834;52.364;9.754;2023-06-19T05:40:19;13.18;;;6.00;;
76863;SDS011;65834;52.364;9.754;2023-06-19T05:45:19;12.57;;;6.20;;
76863;SDS011;65834;52.364;9.754;2023-06-19T05:47:48;12.23;;;6.20;;
76863;SDS011;65834;52.364;9.754;2023-06-19T05:50:18;12.10;;;6.22;;
76863;SDS011;65834;52.364;9.754;2023-06-19T05:52:48;13.52;;;6.75;;
76863;SDS011;65834;52.364;9.754;2023-06-19T05:55:20;11.68;;;5.82;;
76863;SDS011;65834;52.364;9.754;2023-06-19T05:57:51;12.82;;;6.22;;
76863;SDS011;65834;52.364;9.754;2023-06-19T06:00:21;13.48;;;6.70;;
76863;SDS011;65834;52.364;9.754;2023-06-19T06:02:51;14.25;;;6.80;;
76863;SDS011;65834;52.364;9.754;2023-06-19T06:05:21;13.45;;;6.28;;
76863;SDS011;65834;52.364;9.754;2023-06-19T06:07:51;12.90;;;6.55;;
76863;SDS011;65834;52.364;9.754;2023-06-19T06:10:23;13.23;;;6.82;;
76863;SDS011;65834;52.364;9.754;2023-06-19T06:12:54;13.68;;;7.50;;
76863;SDS011;65834;52.364;9.754;2023-06-19T06:15:23;14.25;;;7.07;;
76863;SDS011;65834;52.364;9.754;2023-06-19T06:17:53;14.00;;;6.70;;
76863;SDS011;65834;52.364;9.754;2023-06-19T06:20:22;14.60;;;6.95;;
76863;SDS011;65834;52.364;9.754;2023-06-19T06:22:52;12.43;;;6.60;;
76863;SDS011;65834;52.364;9.754;2023-06-19T06:25:25;13.60;;;7.18;;
76863;SDS011;65834;52.364;9.754;2023-06-19T06:27:54;13.50;;;6.75;;
76863;SDS011;65834;52.364;9.754;2023-06-19T06:30:24;15.07;;;6.53;;
76863;SDS011;65834;52.364;9.754;2023-06-19T06:32:54;13.15;;;7.22;;
76863;SDS011;65834;52.364;9.754;2023-06-19T06:35:24;12.48;;;6.60;;
76863;SDS011;65834;52.364;9.754;2023-06-19T06:37:55;15.68;;;6.57;;
76863;SDS011;65834;52.364;9.754;2023-06-19T06:40:27;14.77;;;7.25;;
76863;SDS011;65834;52.364;9.754;2023-06-19T06:42:56;15.65;;;7.13;;
76863;SDS011;65834;52.364;9.754;2023-06-19T06:45:27;13.38;;;6.72;;
76863;SDS011;65834;52.364;9.754;2023-06-19T06:47:57;13.60;;;6.68;;
76863;SDS011;65834;52.364;9.754;2023-06-19T06:50:27;12.63;;;6.68;;
76863;SDS011;65834;52.364;9.754;2023-06-19T06:52:58;14.90;;;7.07;;
76863;SDS011;65834;52.364;9.754;2023-06-19T06:55:30;14.40;;;6.72;;
76863;SDS011;65834;52.364;9.754;2023-06-19T06:58:00;13.10;;;7.30;;
76863;SDS011;65834;52.364;9.754;2023-06-19T07:00:29;13.30;;;7.10;;
76863;SDS011;65834;52.364;9.754;2023-06-19T07:02:59;12.88;;;7.30;;
76863;SDS011;65834;52.364;9.754;2023-06-19T07:05:29;14.40;;;7.13;;
76863;SDS011;65834;52.364;9.754;2023-06-19T07:07:58;12.77;;;6.55;;
76863;SDS011;65834;52.364;9.754;2023-06-19T07:10:31;12.40;;;6.70;;
76863;SDS011;65834;52.364;9.754;2023-06-19T07:13:00;12.70;;;6.80;;
76863;SDS011;65834;52.364;9.754;2023-06-19T07:15:30;13.27;;;7.13;;
76863;SDS011;65834;52.364;9.754;2023-06-19T07:17:59;11.75;;;6.65;;
76863;SDS011;65834;52.364;9.754;2023-06-19T07:20:29;12.38;;;6.60;;
76863;SDS011;65834;52.364;9.754;2023-06-19T07:22:58;12.57;;;7.13;;
76863;SDS011;65834;52.364;9.754;2023-06-19T07:25:31;13.50;;;7.28;;
76863;SDS011;65834;52.364;9.754;2023-06-19T07:28:00;14.30;;;7.03;;
76863;SDS011;65834;52.364;9.754;2023-06-19T07:30:30;12.52;;;6.78;;
76863;SDS011;65834;52.364;9.754;2023-06-19T07:33:00;12.75;;;6.53;;
76863;SDS011;65834;52.364;9.754;2023-06-19T07:35:29;13.27;;;6.78;;
76863;SDS011;65834;52.364;9.754;2023-06-19T07:37:59;13.90;;;7.30;;
76863;SDS011;65834;52.364;9.754;2023-06-19T07:40:31;12.23;;;6.47;;
76863;SDS011;65834;52.364;9.754;2023-06-19T07:43:01;12.85;;;6.88;;
76863;SDS011;65834;52.364;9.754;2023-06-19T07:45:30;14.63;;;7.40;;
76863;SDS011;65834;52.364;9.754;2023-06-19T07:48:00;13.27;;;6.60;;
76863;SDS011;65834;52.364;9.754;2023-06-19T07:50:29;13.00;;;7.15;;
76863;SDS011;65834;52.364;9.754;2023-06-19T07:52:59;13.77;;;7.38;;
76863;SDS011;65834;52.364;9.754;2023-06-19T07:55:31;13.52;;;7.45;;
76863;SDS011;65834;52.364;9.754;2023-06-19T07:58:01;13.05;;;7.13;;
76863;SDS011;65834;52.364;9.754;2023-06-19T08:00:50;12.90;;;7.13;;
76863;SDS011;65834;52.364;9.754;2023-06-19T08:03:19;13.15;;;6.68;;
76863;SDS011;65834;52.364;9.754;2023-06-19T08:05:51;12.70;;;6.87;;
76863;SDS011;65834;52.364;9.754;2023-06-19T08:08:20;14.13;;;7.20;;
76863;SDS011;65834;52.364;9.754;2023-06-19T08:10:50;12.75;;;7.05;;
76863;SDS011;65834;52.364;9.754;2023-06-19T08:13:20;12.98;;;6.97;;
76863;SDS011;65834;52.364;9.754;2023-06-19T08:15:52;13.82;;;7.35;;
76863;SDS011;65834;52.364;9.754;2023-06-19T08:18:22;14.90;;;7.75;;
76863;SDS011;65834;52.364;9.754;2023-06-19T08:20:51;13.07;;;6.57;;
76863;SDS011;65834;52.364;9.754;2023-06-19T08:23:21;13.80;;;7.35;;
76863;SDS011;65834;52.364;9.754;2023-06-19T08:25:51;13.10;;;7.13;;
76863;SDS011;65834;52.364;9.754;2023-06-19T08:28:20;13.50;;;7.07;;
76863;SDS011;65834;52.364;9.754;2023-06-19T08:30:52;13.13;;;7.22;;
76863;SDS011;65834;52.364;9.754;2023-06-19T08:33:22;12.40;;;6.30;;
76863;SDS011;65834;52.364;9.754;2023-06-19T08:35:51;13.35;;;7.20;;
76863;SDS011;65834;52.364;9.754;2023-06-19T08:38:21;14.65;;;6.97;;
76863;SDS011;65834;52.364;9.754;2023-06-19T08:40:51;12.10;;;6.40;;
76863;SDS011;65834;52.364;9.754;2023-06-19T08:43:21;13.05;;;6.38;;
76863;SDS011;65834;52.364;9.754;2023-06-19T08:46:03;11.30;;;5.65;;
76863;SDS011;65834;52.364;9.754;2023-06-19T08:48:38;12.57;;;6.55;;
76863;SDS011;65834;52.364;9.754;2023-06-19T08:51:08;11.82;;;6.20;;
76863;SDS011;65834;52.364;9.754;2023-06-19T08:53:45;10.88;;;5.55;;
76863;SDS011;65834;52.364;9.754;2023-06-19T08:56:17;13.82;;;6.32;;
76863;SDS011;65834;52.364;9.754;2023-06-19T08:58:47;11.70;;;6.20;;
76863;SDS011;65834;52.364;9.754;2023-06-19T09:01:19;12.35;;;6.18;;
76863;SDS011;65834;52.364;9.754;2023-06-19T09:03:53;11.95;;;6.45;;
76863;SDS011;65834;52.364;9.754;2023-06-19T09:06:23;11.75;;;6.13;;
76863;SDS011;65834;52.364;9.754;2023-06-19T09:08:59;13.07;;;7.00;;
76863;SDS011;65834;52.364;9.754;2023-06-19T09:11:30;13.32;;;6.47;;
76863;SDS011;65834;52.364;9.754;2023-06-19T09:14:00;12.32;;;6.95;;
76863;SDS011;65834;52.364;9.754;2023-06-19T09:16:38;12.82;;;7.15;;
76863;SDS011;65834;52.364;9.754;2023-06-19T09:19:08;12.75;;;7.13;;
76863;SDS011;65834;52.364;9.754;2023-06-19T09:21:38;12.85;;;7.32;;
76863;SDS011;65834;52.364;9.754;2023-06-19T09:24:08;12.40;;;7.03;;
76863;SDS011;65834;52.364;9.754;2023-06-19T09:26:38;13.13;;;7.53;;
76863;SDS011;65834;52.364;9.754;2023-06-19T09:29:11;12.70;;;6.78;;
76863;SDS011;65834;52.364;9.754;2023-06-19T09:31:49;13.45;;;7.50;;
76863;SDS011;65834;52.364;9.754;2023-06-19T09:34:19;13.27;;;6.93;;
76863;SDS011;65834;52.364;9.754;2023-06-19T09:36:49;12.38;;;6.80;;
76863;SDS011;65834;52.364;9.754;2023-06-19T09:39:19;13.57;;;6.45;;
76863;SDS011;65834;52.364;9.754;2023-06-19T09:41:53;12.07;;;6.60;;
76863;SDS011;65834;52.364;9.754;2023-06-19T09:44:30;12.25;;;6.53;;
76863;SDS011;65834;52.364;9.754;2023-06-19T09:47:17;11.60;;;6.75;;
76863;SDS011;65834;52.364;9.754;2023-06-19T09:49:53;12.55;;;6.88;;
76863;SDS011;65834;52.364;9.754;2023-06-19T09:55:01;14.02;;;7.00;;
76863;SDS011;65834;52.364;9.754;2023-06-19T09:57:32;12.85;;;6.70;;
76863;SDS011;65834;52.364;9.754;2023-06-19T10:00:05;12.40;;;6.38;;
76863;SDS011;65834;52.364;9.754;2023-06-19T10:02:42;12.15;;;6.30;;
76863;SDS011;65834;52.364;9.754;2023-06-19T10:05:14;12.63;;;6.25;;
76863;SDS011;65834;52.364;9.754;2023-06-19T10:07:45;12.13;;;6.18;;
76863;SDS011;65834;52.364;9.754;2023-06-19T10:10:22;12.98;;;6.28;;
76863;SDS011;65834;52.364;9.754;2023-06-19T10:12:55;12.70;;;5.97;;
76863;SDS011;65834;52.364;9.754;2023-06-19T10:15:26;11.80;;;5.80;;
76863;SDS011;65834;52.364;9.754;2023-06-19T10:18:01;10.77;;;5.72;;
76863;SDS011;65834;52.364;9.754;2023-06-19T10:20:33;14.80;;;6.30;;
76863;SDS011;65834;52.364;9.754;2023-06-19T10:23:12;12.65;;;5.82;;
76863;SDS011;65834;52.364;9.754;2023-06-19T10:25:46;11.75;;;5.45;;
76863;SDS011;65834;52.364;9.754;2023-06-19T10:28:17;10.57;;;5.22;;
76863;SDS011;65834;52.364;9.754;2023-06-19T10:30:54;10.93;;;5.20;;
76863;SDS011;65834;52.364;9.754;2023-06-19T10:33:28;10.68;;;5.13;;
76863;SDS011;65834;52.364;9.754;2023-06-19T10:35:59;10.35;;;5.18;;
76863;SDS011;65834;52.364;9.754;2023-06-19T10:38:29;11.55;;;5.65;;
76863;SDS011;65834;52.364;9.754;2023-06-19T10:40:59;11.30;;;5.25;;
76863;SDS011;65834;52.364;9.754;2023-06-19T10:43:28;11.27;;;5.18;;
76863;SDS011;65834;52.364;9.754;2023-06-19T10:45:58;11.23;;;5.28;;
76863;SDS011;65834;52.364;9.754;2023-06-19T10:48:34;11.38;;;5.30;;
76863;SDS011;65834;52.364;9.754;2023-06-19T10:51:03;11.43;;;5.40;;
76863;SDS011;65834;52.364;9.754;2023-06-19T10:53:33;11.32;;;5.07;;
76863;SDS011;65834;52.364;9.754;2023-06-19T10:56:03;11.15;;;5.38;;
76863;SDS011;65834;52.364;9.754;2023-06-19T10:58:32;10.40;;;4.80;;
76863;SDS011;65834;52.364;9.754;2023-06-19T11:01:02;12.10;;;5.07;;
76863;SDS011;65834;52.364;9.754;2023-06-19T11:03:34;9.98;;;4.38;;
